Time;durP1;ratioP1;P1;durP2;ratioP2;P2;SDS_P1;SDS_P2;PMS_P1;PMS_P2;Temp;Humidity;BMP_temperature;BMP_pressure;BME280_temperature;BME280_humidity;BME280_pressure;Samples;Min_cycle;Max_cycle;Signal;HPM_P1;HPM_P2
2022/09/03 00:01:49;;;;;;;6.07;2.85;;;;;;;;;;4966763;29;20079;-81
2022/09/03 00:04:30;;;;;;;4.28;2.60;;;;;;;;;;4966670;29;20020;-81
2022/09/03 00:07:12;;;;;;;7.07;2.90;;;;;;;;;;4966907;29;20031;-81
2022/09/03 00:09:42;;;;;;;6.25;3.00;;;;;;;;;;4966630;29;20030;-81
2022/09/03 00:12:19;;;;;;;5.45;2.80;;;;;;;;;;4949499;29;20035;-81
2022/09/03 00:14:50;;;;;;;4.28;2.95;;;;;;;;;;4949493;29;20098;-81
2022/09/03 00:17:19;;;;;;;5.05;2.72;;;;;;;;;;4966549;29;20047;-81
2022/09/03 00:19:53;;;;;;;4.45;3.10;;;;;;;;;;4966568;29;20027;-81
2022/09/03 00:22:28;;;;;;;8.20;3.30;;;;;;;;;;4966486;29;20050;-81
2022/09/03 00:24:59;;;;;;;3.78;2.90;;;;;;;;;;4966461;29;20326;-81
2022/09/03 00:27:26;;;;;;;7.10;3.42;;;;;;;;;;4966332;29;20041;-80
2022/09/03 00:30:09;;;;;;;5.75;3.63;;;;;;;;;;4949230;29;20057;-81
2022/09/03 00:32:56;;;;;;;6.93;3.38;;;;;;;;;;4966181;29;20027;-80
2022/09/03 00:35:27;;;;;;;6.65;3.70;;;;;;;;;;4966249;29;20026;-81
2022/09/03 00:37:54;;;;;;;5.72;3.42;;;;;;;;;;4966136;29;20034;-81
2022/09/03 00:40:53;;;;;;;5.63;3.80;;;;;;;;;;4966082;29;20023;-80
2022/09/03 00:43:39;;;;;;;5.63;3.80;;;;;;;;;;4966004;29;20086;-80
2022/09/03 00:46:28;;;;;;;6.18;3.83;;;;;;;;;;4966090;29;20265;-81
2022/09/03 00:49:31;;;;;;;4.65;3.60;;;;;;;;;;4966032;29;20089;-81
2022/09/03 00:52:00;;;;;;;5.50;3.50;;;;;;;;;;4965939;29;20038;-81
2022/09/03 00:54:40;;;;;;;5.90;3.70;;;;;;;;;;4965907;29;20029;-81
2022/09/03 00:57:11;;;;;;;6.82;3.70;;;;;;;;;;4965865;29;20188;-81
2022/09/03 00:59:56;;;;;;;5.45;3.90;;;;;;;;;;4965993;29;20030;-81
2022/09/03 01:02:56;;;;;;;5.80;3.83;;;;;;;;;;4966056;29;20031;-81
2022/09/03 01:05:25;;;;;;;6.18;3.80;;;;;;;;;;4897660;29;20122;-81
2022/09/03 01:08:08;;;;;;;8.15;3.78;;;;;;;;;;4965781;29;20029;-81
2022/09/03 01:10:43;;;;;;;5.85;3.83;;;;;;;;;;4965622;29;20207;-81
2022/09/03 01:13:21;;;;;;;6.13;3.83;;;;;;;;;;4965689;29;20027;-81
2022/09/03 01:16:10;;;;;;;5.05;3.85;;;;;;;;;;4965889;29;20183;-80
2022/09/03 01:19:16;;;;;;;6.57;4.10;;;;;;;;;;4965662;29;20027;-80
2022/09/03 01:22:23;;;;;;;5.85;4.25;;;;;;;;;;4955156;28;20054;-80
2022/09/03 01:25:10;;;;;;;7.70;4.70;;;;;;;;;;4948455;29;20222;-80
2022/09/03 01:27:42;;;;;;;17.98;8.35;;;;;;;;;;4965525;29;20073;-81
2022/09/03 01:30:17;;;;;;;19.67;10.35;;;;;;;;;;4965389;29;20058;-80
2022/09/03 01:32:51;;;;;;;27.63;15.32;;;;;;;;;;4965539;29;20046;-80
2022/09/03 01:35:18;;;;;;;36.95;16.65;;;;;;;;;;4965479;29;20023;-80
2022/09/03 01:38:06;;;;;;;30.23;16.75;;;;;;;;;;4965487;29;20047;-81
2022/09/03 01:40:37;;;;;;;35.40;16.45;;;;;;;;;;4965442;29;20027;-81
2022/09/03 01:43:31;;;;;;;29.25;14.13;;;;;;;;;;4948388;29;20028;-81
2022/09/03 01:46:18;;;;;;;19.40;10.45;;;;;;;;;;4965354;29;20027;-81
2022/09/03 01:48:55;;;;;;;13.57;7.63;;;;;;;;;;4965261;29;20451;-81
2022/09/03 01:51:26;;;;;;;13.00;7.78;;;;;;;;;;4965226;28;20338;-80
2022/09/03 01:53:51;;;;;;;9.95;6.72;;;;;;;;;;4965096;29;20031;-80
2022/09/03 01:56:56;;;;;;;9.35;5.70;;;;;;;;;;4948205;29;20027;-82
2022/09/03 01:59:52;;;;;;;8.68;5.30;;;;;;;;;;4965243;29;20034;-81
2022/09/03 02:02:25;;;;;;;7.43;5.25;;;;;;;;;;4966689;28;20078;-82
2022/09/03 02:05:13;;;;;;;7.03;5.18;;;;;;;;;;4968558;29;20023;-81
2022/09/03 02:07:47;;;;;;;7.28;5.15;;;;;;;;;;4968919;29;20030;-81
2022/09/03 02:10:23;;;;;;;10.18;5.47;;;;;;;;;;4968854;29;20027;-81
2022/09/03 02:12:55;;;;;;;9.18;5.43;;;;;;;;;;4968882;29;20078;-82
2022/09/03 02:15:23;;;;;;;8.70;5.18;;;;;;;;;;4968790;29;20019;-80
2022/09/03 02:17:54;;;;;;;8.82;5.70;;;;;;;;;;4960776;29;20054;-81
2022/09/03 02:20:24;;;;;;;8.27;5.82;;;;;;;;;;4968626;29;20019;-82
2022/09/03 02:22:53;;;;;;;8.93;6.05;;;;;;;;;;4968628;29;20019;-81
2022/09/03 02:25:22;;;;;;;7.82;5.82;;;;;;;;;;4968582;29;20094;-81
2022/09/03 02:27:48;;;;;;;8.55;5.68;;;;;;;;;;4951375;29;20095;-80
2022/09/03 02:30:13;;;;;;;9.82;5.78;;;;;;;;;;4968476;29;20019;-81
2022/09/03 02:32:39;;;;;;;9.27;5.68;;;;;;;;;;4968429;29;20020;-81
2022/09/03 02:35:05;;;;;;;7.78;5.53;;;;;;;;;;4968401;29;20024;-80
2022/09/03 02:37:30;;;;;;;8.50;5.50;;;;;;;;;;4968033;28;20326;-82
2022/09/03 02:39:56;;;;;;;12.30;5.40;;;;;;;;;;4968278;29;20020;-82
2022/09/03 02:42:21;;;;;;;8.52;5.53;;;;;;;;;;4950227;29;20095;-81
2022/09/03 02:45:18;;;;;;;11.77;5.72;;;;;;;;;;4968284;29;20049;-81
2022/09/03 02:47:48;;;;;;;10.38;5.88;;;;;;;;;;4950689;29;20039;-81
2022/09/03 02:50:14;;;;;;;8.90;6.15;;;;;;;;;;4968034;29;20086;-81
2022/09/03 02:52:39;;;;;;;8.07;5.85;;;;;;;;;;4968013;29;20330;-80
2022/09/03 02:55:05;;;;;;;8.18;5.70;;;;;;;;;;4967551;29;20059;-80
2022/09/03 02:57:30;;;;;;;9.10;5.82;;;;;;;;;;4968070;29;20341;-80
2022/09/03 02:59:55;;;;;;;10.57;6.00;;;;;;;;;;4967948;29;20024;-81
2022/09/03 03:02:21;;;;;;;8.05;5.80;;;;;;;;;;4967900;29;20103;-80
2022/09/03 03:04:46;;;;;;;7.85;5.60;;;;;;;;;;4967057;29;20031;-81
2022/09/03 03:07:11;;;;;;;9.77;5.47;;;;;;;;;;4968008;29;20051;-80
2022/09/03 03:09:37;;;;;;;9.82;5.78;;;;;;;;;;4968071;29;20026;-81
2022/09/03 03:12:02;;;;;;;9.15;5.50;;;;;;;;;;4967719;29;20078;-80
2022/09/03 03:14:28;;;;;;;7.45;5.18;;;;;;;;;;4966722;28;20071;-81
2022/09/03 03:16:53;;;;;;;9.18;5.72;;;;;;;;;;4967676;29;20050;-81
2022/09/03 03:19:18;;;;;;;7.68;5.57;;;;;;;;;;4967682;29;20039;-81
2022/09/03 03:21:44;;;;;;;8.18;5.97;;;;;;;;;;4967643;29;20034;-80
2022/09/03 03:24:09;;;;;;;7.45;5.38;;;;;;;;;;4966769;29;20094;-81
2022/09/03 03:26:34;;;;;;;8.43;5.85;;;;;;;;;;4967472;29;20119;-80
2022/09/03 03:29:03;;;;;;;9.52;5.45;;;;;;;;;;4967451;29;20034;-80
2022/09/03 03:31:29;;;;;;;9.27;5.47;;;;;;;;;;4967240;29;20054;-80
2022/09/03 03:33:57;;;;;;;8.55;6.10;;;;;;;;;;4967331;29;20090;-80
2022/09/03 03:36:25;;;;;;;8.50;6.07;;;;;;;;;;4967327;29;20023;-80
2022/09/03 03:38:55;;;;;;;9.07;6.13;;;;;;;;;;4967266;29;20038;-81
2022/09/03 03:41:26;;;;;;;9.63;6.00;;;;;;;;;;4967251;29;20366;-81
2022/09/03 03:43:53;;;;;;;8.27;5.65;;;;;;;;;;4967196;29;20023;-81
2022/09/03 03:46:19;;;;;;;8.02;5.60;;;;;;;;;;4967184;29;20023;-81
2022/09/03 03:48:47;;;;;;;9.95;6.47;;;;;;;;;;4967062;29;20023;-80
2022/09/03 03:51:13;;;;;;;9.30;5.90;;;;;;;;;;4966955;29;20042;-81
2022/09/03 03:53:41;;;;;;;8.48;6.05;;;;;;;;;;4967055;29;20031;-81
2022/09/03 03:56:09;;;;;;;7.53;5.47;;;;;;;;;;4967091;29;20057;-81
2022/09/03 03:58:36;;;;;;;9.70;6.03;;;;;;;;;;4966945;29;20023;-82
2022/09/03 04:01:19;;;;;;;7.95;5.70;;;;;;;;;;4966896;29;20319;-81
2022/09/03 04:03:45;;;;;;;7.45;5.30;;;;;;;;;;4966856;29;20031;-81
2022/09/03 04:06:16;;;;;;;10.48;6.40;;;;;;;;;;4965869;29;20030;-81
2022/09/03 04:08:43;;;;;;;10.20;6.20;;;;;;;;;;4966755;29;20023;-81
2022/09/03 04:11:12;;;;;;;8.63;5.85;;;;;;;;;;4966631;29;20035;-81
2022/09/03 04:13:40;;;;;;;10.02;5.80;;;;;;;;;;4966637;29;20031;-81
2022/09/03 04:16:05;;;;;;;10.77;5.72;;;;;;;;;;4966504;29;20085;-82
2022/09/03 04:18:32;;;;;;;8.77;5.63;;;;;;;;;;4966397;29;20309;-80
2022/09/03 04:21:02;;;;;;;8.13;5.70;;;;;;;;;;4966450;29;20262;-81
2022/09/03 04:23:28;;;;;;;8.40;5.47;;;;;;;;;;4966341;29;20023;-81
2022/09/03 04:25:53;;;;;;;9.52;5.90;;;;;;;;;;4965967;28;20091;-82
2022/09/03 04:28:18;;;;;;;10.25;6.10;;;;;;;;;;4965813;29;20246;-81
2022/09/03 04:30:44;;;;;;;9.90;5.70;;;;;;;;;;4965202;29;20215;-81
2022/09/03 04:33:09;;;;;;;7.82;5.03;;;;;;;;;;4965482;29;20058;-81
2022/09/03 04:35:34;;;;;;;9.48;6.05;;;;;;;;;;4966311;29;20023;-81
2022/09/03 04:38:00;;;;;;;7.95;5.90;;;;;;;;;;4966449;29;20027;-82
2022/09/03 04:40:26;;;;;;;9.27;5.88;;;;;;;;;;4965539;29;20357;-81
2022/09/03 04:42:57;;;;;;;9.18;6.18;;;;;;;;;;4966063;29;20023;-81
2022/09/03 04:45:22;;;;;;;9.35;5.68;;;;;;;;;;4948931;29;20037;-81
2022/09/03 04:48:03;;;;;;;8.20;6.00;;;;;;;;;;4965311;29;20039;-81
2022/09/03 04:50:31;;;;;;;7.47;5.80;;;;;;;;;;4965998;29;20027;-81
2022/09/03 04:53:02;;;;;;;9.35;6.05;;;;;;;;;;4948024;29;20023;-81
2022/09/03 04:55:31;;;;;;;9.93;6.03;;;;;;;;;;4966174;29;20043;-82
2022/09/03 04:57:58;;;;;;;10.25;6.25;;;;;;;;;;4965903;29;20272;-81
2022/09/03 05:00:23;;;;;;;7.43;5.75;;;;;;;;;;4947782;29;20437;-81
2022/09/03 05:02:50;;;;;;;14.43;6.38;;;;;;;;;;4965188;29;20082;-81
2022/09/03 05:05:17;;;;;;;9.57;5.97;;;;;;;;;;4965783;29;20030;-80
2022/09/03 05:07:42;;;;;;;11.75;6.32;;;;;;;;;;4965769;29;20037;-81
2022/09/03 05:10:14;;;;;;;11.13;6.45;;;;;;;;;;4947733;29;20094;-81
2022/09/03 05:12:40;;;;;;;9.32;5.90;;;;;;;;;;4965728;29;20046;-81
2022/09/03 05:15:06;;;;;;;11.32;7.30;;;;;;;;;;4948521;29;20283;-81
2022/09/03 05:17:31;;;;;;;10.70;5.88;;;;;;;;;;4965427;29;20051;-81
2022/09/03 05:19:57;;;;;;;11.00;6.10;;;;;;;;;;4964807;29;20031;-81
2022/09/03 05:22:22;;;;;;;8.15;6.05;;;;;;;;;;4948506;29;20031;-81
2022/09/03 05:24:47;;;;;;;11.50;6.53;;;;;;;;;;4965668;29;20034;-80
2022/09/03 05:27:15;;;;;;;11.07;6.45;;;;;;;;;;4965368;29;20035;-81
2022/09/03 05:29:44;;;;;;;8.68;6.05;;;;;;;;;;4964624;29;20023;-81
2022/09/03 05:32:11;;;;;;;10.43;6.40;;;;;;;;;;4948293;29;20046;-81
2022/09/03 05:34:36;;;;;;;9.23;6.35;;;;;;;;;;4965555;29;20110;-81
2022/09/03 05:37:02;;;;;;;11.80;7.40;;;;;;;;;;4949353;29;20027;-81
2022/09/03 05:39:27;;;;;;;10.63;6.65;;;;;;;;;;4969477;29;20031;-82
2022/09/03 05:41:52;;;;;;;11.25;7.10;;;;;;;;;;4968066;28;20031;-81
2022/09/03 05:44:20;;;;;;;11.30;7.10;;;;;;;;;;4969314;29;20030;-82
2022/09/03 05:46:45;;;;;;;10.70;6.95;;;;;;;;;;4968428;29;20027;-81
2022/09/03 05:49:11;;;;;;;13.45;7.63;;;;;;;;;;4968356;29;20067;-82
2022/09/03 05:51:39;;;;;;;12.50;7.72;;;;;;;;;;4951839;29;20042;-81
2022/09/03 05:54:07;;;;;;;12.07;8.00;;;;;;;;;;4968476;29;20024;-81
2022/09/03 05:56:34;;;;;;;11.65;8.18;;;;;;;;;;4951749;29;20341;-80
2022/09/03 05:59:04;;;;;;;12.82;8.35;;;;;;;;;;4952287;29;20030;-81
2022/09/03 06:01:34;;;;;;;14.75;8.13;;;;;;;;;;4969327;29;20030;-82
2022/09/03 06:04:00;;;;;;;14.45;8.32;;;;;;;;;;4968307;29;20086;-81
2022/09/03 06:06:27;;;;;;;12.93;8.45;;;;;;;;;;4968858;29;20019;-80
2022/09/03 06:08:56;;;;;;;12.93;8.40;;;;;;;;;;4951736;29;20030;-80
2022/09/03 06:11:26;;;;;;;13.32;8.02;;;;;;;;;;4951789;29;20031;-82
2022/09/03 06:13:53;;;;;;;15.25;8.60;;;;;;;;;;4968912;29;20361;-81
2022/09/03 06:16:20;;;;;;;12.82;8.00;;;;;;;;;;4968732;29;20030;-81
2022/09/03 06:18:45;;;;;;;18.58;7.63;;;;;;;;;;4951568;29;20038;-81
2022/09/03 06:21:11;;;;;;;15.70;7.90;;;;;;;;;;4968718;29;20023;-80
2022/09/03 06:23:36;;;;;;;13.13;7.70;;;;;;;;;;4968632;29;20034;-81
2022/09/03 06:26:06;;;;;;;12.48;7.47;;;;;;;;;;4968289;29;20023;-78
2022/09/03 06:28:34;;;;;;;13.00;7.53;;;;;;;;;;4967872;29;20026;-80
2022/09/03 06:31:01;;;;;;;12.18;7.75;;;;;;;;;;4968605;29;20019;-82
2022/09/03 06:33:29;;;;;;;11.75;7.57;;;;;;;;;;4968406;29;20024;-82
2022/09/03 06:35:58;;;;;;;11.13;7.47;;;;;;;;;;4950533;29;20023;-83
2022/09/03 06:38:30;;;;;;;12.48;7.32;;;;;;;;;;4968434;29;20127;-83
2022/09/03 06:41:01;;;;;;;12.13;7.13;;;;;;;;;;4968341;29;20025;-83
2022/09/03 06:43:27;;;;;;;11.80;6.65;;;;;;;;;;4968307;29;20027;-82
2022/09/03 06:45:58;;;;;;;10.90;6.90;;;;;;;;;;4951124;29;20102;-82
2022/09/03 06:48:24;;;;;;;10.48;6.90;;;;;;;;;;4967998;28;20019;-82
2022/09/03 06:51:05;;;;;;;10.15;6.43;;;;;;;;;;4968290;29;20074;-82
2022/09/03 06:53:39;;;;;;;9.50;6.18;;;;;;;;;;4968326;29;20090;-82
2022/09/03 06:56:09;;;;;;;7.65;5.80;;;;;;;;;;4950714;29;20031;-83
2022/09/03 06:58:42;;;;;;;10.30;6.00;;;;;;;;;;4967874;29;20027;-81
2022/09/03 07:01:11;;;;;;;8.02;5.85;;;;;;;;;;4968286;29;20031;-82
2022/09/03 07:03:38;;;;;;;8.55;5.30;;;;;;;;;;4950001;29;20259;-81
2022/09/03 07:06:15;;;;;;;8.50;5.53;;;;;;;;;;4967192;29;20098;-82
2022/09/03 07:08:41;;;;;;;8.27;4.97;;;;;;;;;;4950689;29;20039;-81
2022/09/03 07:11:10;;;;;;;7.15;5.07;;;;;;;;;;4967786;29;20031;-81
2022/09/03 07:13:42;;;;;;;8.40;4.95;;;;;;;;;;4967747;29;20057;-82
2022/09/03 07:16:10;;;;;;;9.98;5.20;;;;;;;;;;4950501;29;20051;-81
2022/09/03 07:18:36;;;;;;;7.55;4.95;;;;;;;;;;4950322;29;20327;-82
2022/09/03 07:21:05;;;;;;;7.90;4.88;;;;;;;;;;4967725;29;20038;-82
2022/09/03 07:23:31;;;;;;;8.38;4.57;;;;;;;;;;4965733;29;20337;-82
2022/09/03 07:25:59;;;;;;;9.70;5.43;;;;;;;;;;4967482;29;20089;-83
2022/09/03 07:28:26;;;;;;;7.30;4.90;;;;;;;;;;4950416;29;20029;-83
2022/09/03 07:30:53;;;;;;;7.25;5.50;;;;;;;;;;4967277;29;20031;-81
2022/09/03 07:33:18;;;;;;;6.55;4.80;;;;;;;;;;4950055;29;20023;-81
2022/09/03 07:35:44;;;;;;;7.15;5.00;;;;;;;;;;4967423;29;20056;-81
2022/09/03 07:38:10;;;;;;;6.95;5.28;;;;;;;;;;4967266;29;20363;-83
2022/09/03 07:40:35;;;;;;;7.68;5.13;;;;;;;;;;4967281;29;20039;-80
2022/09/03 07:43:03;;;;;;;9.27;4.82;;;;;;;;;;4950212;29;20050;-77
2022/09/03 07:45:28;;;;;;;7.32;5.00;;;;;;;;;;4967043;29;20067;-79
2022/09/03 07:47:54;;;;;;;7.93;4.82;;;;;;;;;;4966519;29;20027;-80
2022/09/03 07:50:19;;;;;;;7.53;4.60;;;;;;;;;;4967095;29;20023;-82
2022/09/03 07:52:46;;;;;;;9.10;4.78;;;;;;;;;;4949176;29;20026;-81
2022/09/03 07:55:12;;;;;;;6.90;4.82;;;;;;;;;;4950377;29;20034;-83
2022/09/03 07:57:38;;;;;;;7.00;4.47;;;;;;;;;;4966043;29;20050;-84
2022/09/03 08:00:05;;;;;;;7.85;4.80;;;;;;;;;;4966550;28;20206;-80
2022/09/03 08:02:30;;;;;;;6.72;4.57;;;;;;;;;;4966784;29;20027;-81
2022/09/03 08:04:56;;;;;;;6.65;4.55;;;;;;;;;;4966935;29;20026;-79
2022/09/03 08:07:21;;;;;;;7.22;4.35;;;;;;;;;;4948763;29;20054;-81
2022/09/03 08:09:46;;;;;;;7.68;4.60;;;;;;;;;;4966626;29;20027;-83
2022/09/03 08:12:12;;;;;;;6.72;4.40;;;;;;;;;;4966487;29;20031;-82
2022/09/03 08:14:37;;;;;;;6.82;4.20;;;;;;;;;;4965749;29;20426;-80
2022/09/03 08:17:03;;;;;;;6.57;4.28;;;;;;;;;;4965539;29;20082;-83
2022/09/03 08:19:28;;;;;;;6.55;4.28;;;;;;;;;;4966371;29;20023;-81
2022/09/03 08:21:54;;;;;;;7.70;4.40;;;;;;;;;;4966381;29;20338;-83
2022/09/03 08:24:24;;;;;;;6.18;4.00;;;;;;;;;;4949050;29;20026;-83
2022/09/03 08:26:49;;;;;;;8.75;4.60;;;;;;;;;;4949213;29;20066;-81
2022/09/03 08:29:15;;;;;;;10.93;4.43;;;;;;;;;;4966495;29;20015;-82
2022/09/03 08:31:40;;;;;;;7.45;4.45;;;;;;;;;;4966256;29;20818;-81
2022/09/03 08:34:06;;;;;;;8.63;5.13;;;;;;;;;;4966252;29;20082;-82
2022/09/03 08:36:35;;;;;;;9.60;4.00;;;;;;;;;;4966732;29;20090;-81
2022/09/03 08:39:08;;;;;;;5.70;4.40;;;;;;;;;;4966265;29;20357;-81
2022/09/03 08:41:52;;;;;;;7.63;4.55;;;;;;;;;;4965984;29;20027;-81
2022/09/03 08:44:29;;;;;;;6.93;4.30;;;;;;;;;;4965982;29;20027;-83
2022/09/03 08:47:15;;;;;;;7.97;4.68;;;;;;;;;;4966045;29;20074;-81
2022/09/03 08:50:07;;;;;;;7.20;4.90;;;;;;;;;;4965850;29;20027;-84
2022/09/03 08:52:59;;;;;;;7.28;4.72;;;;;;;;;;4965721;29;20051;-82
2022/09/03 08:55:29;;;;;;;10.95;4.75;;;;;;;;;;4933874;29;20039;-81
2022/09/03 08:58:09;;;;;;;10.32;5.15;;;;;;;;;;4948544;29;20074;-85
2022/09/03 09:01:02;;;;;;;9.15;4.90;;;;;;;;;;4948578;29;20058;-84
2022/09/03 09:03:58;;;;;;;8.07;4.90;;;;;;;;;;4965744;29;20434;-83
2022/09/03 09:06:49;;;;;;;8.55;4.45;;;;;;;;;;4965932;29;20037;-84
2022/09/03 09:09:23;;;;;;;6.28;4.43;;;;;;;;;;4948645;29;20393;-82
2022/09/03 09:12:10;;;;;;;8.50;3.58;;;;;;;;;;4964636;28;20038;-84
2022/09/03 09:15:04;;;;;;;9.13;4.20;;;;;;;;;;4965581;29;20043;-84
2022/09/03 09:18:08;;;;;;;8.98;4.05;;;;;;;;;;4965577;29;20043;-85
2022/09/03 09:20:34;;;;;;;7.90;3.90;;;;;;;;;;4948445;29;20031;-83
2022/09/03 09:23:08;;;;;;;7.22;3.67;;;;;;;;;;4948618;29;20090;-83
2022/09/03 09:25:43;;;;;;;6.93;3.60;;;;;;;;;;4948289;29;20019;-85
2022/09/03 09:28:11;;;;;;;;;;;;;;;;;;4965956;29;20067;-86
2022/09/03 09:30:36;;;;;;;6.63;3.65;;;;;;;;;;4965478;29;19910;-82
2022/09/03 09:33:02;;;;;;;8.35;3.63;;;;;;;;;;4965388;29;20034;-81
2022/09/03 09:35:27;;;;;;;6.88;3.60;;;;;;;;;;4965310;29;20023;-80
2022/09/03 09:37:54;;;;;;;6.15;3.90;;;;;;;;;;4965468;29;20090;-80
2022/09/03 09:40:31;;;;;;;6.45;3.63;;;;;;;;;;4965354;29;20023;-80
2022/09/03 09:43:15;;;;;;;5.15;3.50;;;;;;;;;;4948249;29;20027;-79
2022/09/03 09:45:44;;;;;;;5.90;3.63;;;;;;;;;;4965363;29;20031;-80
2022/09/03 09:48:31;;;;;;;6.55;4.05;;;;;;;;;;4965432;29;20203;-79
2022/09/03 09:51:12;;;;;;;4.93;3.60;;;;;;;;;;4965090;29;20043;-79
2022/09/03 09:53:39;;;;;;;5.88;3.70;;;;;;;;;;4965204;29;20191;-78
2022/09/03 09:56:04;;;;;;;6.32;3.63;;;;;;;;;;4965340;29;20027;-81
2022/09/03 09:58:32;;;;;;;6.43;3.80;;;;;;;;;;4965199;29;20211;-78
2022/09/03 10:01:01;;;;;;;7.47;3.70;;;;;;;;;;4965150;29;20053;-79
2022/09/03 10:03:28;;;;;;;6.57;4.50;;;;;;;;;;4965207;29;20027;-77
2022/09/03 10:06:01;;;;;;;8.02;4.85;;;;;;;;;;4965351;29;20046;-78
2022/09/03 10:08:26;;;;;;;8.07;4.28;;;;;;;;;;4965025;29;20373;-83
2022/09/03 10:10:52;;;;;;;6.63;4.53;;;;;;;;;;4947607;29;20034;-84
2022/09/03 10:13:25;;;;;;;7.75;4.75;;;;;;;;;;4964838;29;20030;-88
2022/09/03 10:16:14;;;;;;;7.32;4.10;;;;;;;;;;4965092;29;20027;-87
2022/09/03 10:19:05;;;;;;;6.40;3.60;;;;;;;;;;4947618;29;20059;-85
2022/09/03 10:21:53;;;;;;;6.95;3.53;;;;;;;;;;4964914;29;20059;-84
2022/09/03 10:24:24;;;;;;;4.15;3.20;;;;;;;;;;4967805;28;20023;-84
2022/09/03 10:26:50;;;;;;;5.05;3.30;;;;;;;;;;4968518;29;20031;-84
2022/09/03 10:29:19;;;;;;;5.38;3.08;;;;;;;;;;4968422;29;20095;-85
2022/09/03 10:32:23;;;;;;;5.40;2.85;;;;;;;;;;4950865;29;20192;-82
2022/09/03 10:35:03;;;;;;;7.35;2.80;;;;;;;;;;4951174;29;20046;-84
2022/09/03 10:37:54;;;;;;;5.88;2.90;;;;;;;;;;4968235;29;20345;-80
2022/09/03 10:40:43;;;;;;;3.22;2.40;;;;;;;;;;4968243;28;20094;-83
2022/09/03 10:43:17;;;;;;;7.13;3.22;;;;;;;;;;4950992;29;20049;-82
2022/09/03 10:46:02;;;;;;;5.60;3.03;;;;;;;;;;4968087;29;20055;-84
2022/09/03 10:49:01;;;;;;;3.47;2.20;;;;;;;;;;4968345;29;20222;-84
2022/09/03 10:51:41;;;;;;;5.03;2.65;;;;;;;;;;4967975;29;20027;-85
2022/09/03 10:54:38;;;;;;;5.38;2.47;;;;;;;;;;4951814;29;20023;-83
2022/09/03 10:57:19;;;;;;;3.58;2.50;;;;;;;;;;4950893;29;20027;-86
2022/09/03 11:00:08;;;;;;;4.38;2.42;;;;;;;;;;4967799;29;20033;-86
2022/09/03 11:02:51;;;;;;;5.00;2.42;;;;;;;;;;4967745;29;20027;-84
2022/09/03 11:05:28;;;;;;;5.82;2.60;;;;;;;;;;4950385;29;20027;-85
2022/09/03 11:08:15;;;;;;;3.28;2.40;;;;;;;;;;4950478;29;20050;-82
2022/09/03 11:10:44;;;;;;;4.90;2.20;;;;;;;;;;4967584;29;20038;-81
2022/09/03 11:13:12;;;;;;;3.63;2.25;;;;;;;;;;4967538;29;20031;-83
2022/09/03 11:15:48;;;;;;;4.20;2.08;;;;;;;;;;4950342;29;20039;-83
2022/09/03 11:18:24;;;;;;;3.00;2.13;;;;;;;;;;4966541;29;20098;-81
2022/09/03 11:20:54;;;;;;;2.38;1.77;;;;;;;;;;4967772;29;20024;-84
2022/09/03 11:23:22;;;;;;;3.38;2.03;;;;;;;;;;4967485;29;20041;-82
2022/09/03 11:25:56;;;;;;;4.55;2.30;;;;;;;;;;4967096;29;20082;-79
2022/09/03 11:28:21;;;;;;;4.30;1.90;;;;;;;;;;4950264;29;20359;-81
2022/09/03 11:31:03;;;;;;;3.88;2.00;;;;;;;;;;4967146;29;20023;-84
2022/09/03 11:33:31;;;;;;;4.97;2.38;;;;;;;;;;4967080;29;20098;-86
2022/09/03 11:35:59;;;;;;;4.40;2.38;;;;;;;;;;4966152;28;20018;-87
2022/09/03 11:38:29;;;;;;;4.40;2.30;;;;;;;;;;4949883;29;20051;-83
2022/09/03 11:40:58;;;;;;;4.40;2.45;;;;;;;;;;4950061;29;20303;-83
2022/09/03 11:43:27;;;;;;;3.42;2.13;;;;;;;;;;4967089;29;20031;-86
2022/09/03 11:46:10;;;;;;;3.92;2.50;;;;;;;;;;4967365;29;20093;-84
2022/09/03 11:48:50;;;;;;;5.15;2.50;;;;;;;;;;4949822;29;20051;-82
2022/09/03 11:51:31;;;;;;;5.32;2.50;;;;;;;;;;4949567;29;20027;-84
2022/09/03 11:54:00;;;;;;;4.18;2.00;;;;;;;;;;4966803;29;20027;-83
2022/09/03 11:56:27;;;;;;;3.22;1.90;;;;;;;;;;4966326;29;20034;-83
2022/09/03 11:59:25;;;;;;;4.10;1.92;;;;;;;;;;4967104;29;20027;-86
2022/09/03 12:02:01;;;;;;;3.22;2.00;;;;;;;;;;4934965;29;20039;-88
2022/09/03 12:05:01;;;;;;;4.68;2.40;;;;;;;;;;4967033;29;20019;-81
2022/09/03 12:07:29;;;;;;;4.13;1.63;;;;;;;;;;4949486;29;20111;-82
2022/09/03 12:10:12;;;;;;;2.50;1.70;;;;;;;;;;4966614;29;20062;-82
2022/09/03 12:13:12;;;;;;;6.72;1.83;;;;;;;;;;4949180;29;20035;-83
2022/09/03 12:16:03;;;;;;;4.40;1.77;;;;;;;;;;4949075;29;20027;-83
2022/09/03 12:18:30;;;;;;;4.03;1.80;;;;;;;;;;4966445;29;20062;-82
2022/09/03 12:20:55;;;;;;;3.50;1.60;;;;;;;;;;4949313;29;20039;-84
2022/09/03 12:23:29;;;;;;;4.18;1.90;;;;;;;;;;4949320;29;20031;-89
2022/09/03 12:26:05;;;;;;;3.47;1.73;;;;;;;;;;4949226;29;20094;-85
2022/09/03 12:28:35;;;;;;;3.00;1.80;;;;;;;;;;4966533;29;20307;-91
2022/09/03 12:31:28;;;;;;;5.30;1.90;;;;;;;;;;4967057;29;20027;-91
2022/09/03 12:33:59;;;;;;;6.00;2.10;;;;;;;;;;4949666;29;20320;-87
2022/09/03 12:36:45;;;;;;;4.25;1.50;;;;;;;;;;4965912;29;20259;-86
2022/09/03 12:39:16;;;;;;;2.58;1.40;;;;;;;;;;4948547;29;20030;-89
2022/09/03 12:42:11;;;;;;;4.53;1.48;;;;;;;;;;4966082;29;20023;-88
2022/09/03 12:44:36;;;;;;;4.65;1.95;;;;;;;;;;4966073;29;20100;-88
2022/09/03 12:47:10;;;;;;;3.40;1.60;;;;;;;;;;4965576;28;20031;-87
2022/09/03 12:49:41;;;;;;;3.70;1.52;;;;;;;;;;4948737;29;20027;-87
2022/09/03 12:52:15;;;;;;;4.05;1.80;;;;;;;;;;4948632;29;20238;-83
2022/09/03 12:54:51;;;;;;;3.58;1.55;;;;;;;;;;4949106;29;20334;-85
2022/09/03 12:57:22;;;;;;;4.55;1.85;;;;;;;;;;4965694;29;20098;-87
2022/09/03 12:59:51;;;;;;;3.20;1.70;;;;;;;;;;4965802;29;20050;-88
2022/09/03 13:02:26;;;;;;;2.80;1.65;;;;;;;;;;4965792;29;20027;-87
2022/09/03 13:04:52;;;;;;;;;;;;;;;;;;4966083;29;20027;-87
2022/09/03 13:07:32;;;;;;;3.20;1.50;;;;;;;;;;4965715;29;19953;-83
2022/09/03 13:10:03;;;;;;;3.53;1.75;;;;;;;;;;4965891;29;20023;-87
2022/09/03 13:12:40;;;;;;;2.97;1.83;;;;;;;;;;4965608;29;20034;-87
2022/09/03 13:15:09;;;;;;;4.05;1.63;;;;;;;;;;4965705;29;20074;-85
2022/09/03 13:17:54;;;;;;;2.38;1.63;;;;;;;;;;4965529;29;20220;-87
2022/09/03 13:20:32;;;;;;;3.65;1.60;;;;;;;;;;4965627;29;20110;-86
2022/09/03 13:23:35;;;;;;;4.82;1.98;;;;;;;;;;4965383;29;20051;-84
2022/09/03 13:26:05;;;;;;;3.13;1.70;;;;;;;;;;4965468;29;20113;-87
2022/09/03 13:29:08;;;;;;;3.53;2.00;;;;;;;;;;4965553;29;20095;-86
2022/09/03 13:31:39;;;;;;;3.13;2.10;;;;;;;;;;4965385;29;20054;-91
2022/09/03 13:34:22;;;;;;;3.38;2.30;;;;;;;;;;4965544;29;20210;-85
2022/09/03 13:37:08;;;;;;;4.95;2.47;;;;;;;;;;4965433;29;20030;-87
2022/09/03 13:39:51;;;;;;;3.58;2.17;;;;;;;;;;4965384;29;20089;-88
2022/09/03 13:42:24;;;;;;;3.75;2.05;;;;;;;;;;4965283;29;20218;-86
2022/09/03 13:44:57;;;;;;;3.40;2.08;;;;;;;;;;4965322;29;20031;-89
2022/09/03 13:50:20;;;;;;;5.85;2.10;;;;;;;;;;4965335;29;20066;-85
2022/09/03 13:50:27;;;;;;;3.83;2.22;;;;;;;;;;4964962;28;20219;-87
2022/09/03 13:53:17;;;;;;;6.05;2.10;;;;;;;;;;4965445;29;20027;-88
2022/09/03 13:55:46;;;;;;;3.13;2.17;;;;;;;;;;4965063;29;20192;-83
2022/09/03 13:58:32;;;;;;;2.53;1.92;;;;;;;;;;4966311;28;20020;-84
2022/09/03 14:00:58;;;;;;;3.45;2.00;;;;;;;;;;4968960;29;20262;-87
2022/09/03 14:03:34;;;;;;;3.00;1.80;;;;;;;;;;4968985;29;20038;-85
2022/09/03 14:06:30;;;;;;;4.03;2.05;;;;;;;;;;4968962;29;20051;-83
2022/09/03 14:09:22;;;;;;;3.22;1.90;;;;;;;;;;4968823;29;20247;-92
2022/09/03 14:12:05;;;;;;;3.30;2.10;;;;;;;;;;4968641;29;20035;-88
2022/09/03 14:15:01;;;;;;;3.17;1.98;;;;;;;;;;4968763;29;20019;-90
2022/09/03 14:17:39;;;;;;;3.05;2.00;;;;;;;;;;4968779;29;20046;-86
2022/09/03 14:20:25;;;;;;;2.30;1.77;;;;;;;;;;4968735;29;20050;-93
2022/09/03 14:23:19;;;;;;;3.60;1.90;;;;;;;;;;4968673;29;20023;-84
2022/09/03 14:25:54;;;;;;;3.53;2.00;;;;;;;;;;4968527;29;20326;-82
2022/09/03 14:28:30;;;;;;;3.30;1.77;;;;;;;;;;4951685;29;20078;-81
2022/09/03 14:31:23;;;;;;;3.88;1.70;;;;;;;;;;4968244;29;20047;-82
2022/09/03 14:34:09;;;;;;;3.63;2.00;;;;;;;;;;4968488;29;20086;-82
2022/09/03 14:36:57;;;;;;;2.85;1.80;;;;;;;;;;4968251;29;20059;-83
2022/09/03 14:39:31;;;;;;;4.63;2.20;;;;;;;;;;4951288;29;20027;-84
2022/09/03 14:42:22;;;;;;;3.53;2.10;;;;;;;;;;4968199;29;20030;-85
2022/09/03 14:45:03;;;;;;;3.28;1.95;;;;;;;;;;4968071;29;20070;-86
2022/09/03 14:47:34;;;;;;;3.35;1.98;;;;;;;;;;4968063;29;20366;-79
2022/09/03 14:50:15;;;;;;;2.95;1.90;;;;;;;;;;4968127;29;20027;-85
2022/09/03 14:53:09;;;;;;;5.30;2.10;;;;;;;;;;4967939;29;20027;-77
2022/09/03 14:55:41;;;;;;;4.07;1.90;;;;;;;;;;4967990;29;20054;-84
2022/09/03 14:58:28;;;;;;;3.22;2.10;;;;;;;;;;4951198;29;20023;-83
2022/09/03 15:01:04;;;;;;;3.78;2.10;;;;;;;;;;4967922;29;20040;-91
2022/09/03 15:03:56;;;;;;;3.95;2.08;;;;;;;;;;4967783;29;20422;-87
2022/09/03 15:06:43;;;;;;;2.70;1.80;;;;;;;;;;4967659;29;20065;-88
2022/09/03 15:09:17;;;;;;;2.85;1.90;;;;;;;;;;4950368;29;20214;-85
2022/09/03 15:12:00;;;;;;;2.85;1.80;;;;;;;;;;4967616;29;20037;-84
2022/09/03 15:14:40;;;;;;;2.80;1.90;;;;;;;;;;4967708;29;20074;-82
2022/09/03 15:17:29;;;;;;;3.03;1.80;;;;;;;;;;4967253;29;20055;-83
2022/09/03 15:20:07;;;;;;;3.13;1.80;;;;;;;;;;4967601;29;20031;-83
2022/09/03 15:23:10;;;;;;;4.35;2.00;;;;;;;;;;4967422;29;20028;-86